Eden Mills, Vermont
Current Conditions -  °F | °C
As of 4:54 AM on Saturday 29 Nov 2014 (Local Time) from KMVL Reporting Station
Light Snow Light Snow  
Wind Chill: 11°   Ceiling: 2900
Heat Index: 11°   Visibility: 5mi
Dew Point:   Wind: 0mph
Humidity: 84%   Direction: NA
Pressure: 30.22"   Gusts: NA
Location:  44.71°N, 72.55°W
Report Text: KMVL 290954Z AUTO 00000KT 5SM -SN BR OVC029 M12/M14 A3022 RMK AO2 SLP249 P0000 T11171139 TSNO
Loading
Personal Weather Stations






























Interactive Weather Map New forecast layout! Learn more

10-Day Weather Forecast

Advertisements
Track Severe Weather on mobile